createdAt,value
2018-02-21T00:01:06.170Z,45.03
2018-02-21T00:03:33.762Z,48.50
2018-02-21T00:06:01.383Z,46.87
2018-02-21T00:08:29.202Z,43.60
2018-02-21T00:10:56.910Z,48.57
2018-02-21T00:13:24.609Z,45.22
2018-02-21T00:15:52.239Z,46.67
2018-02-21T00:18:19.835Z,41.27
2018-02-21T00:20:47.483Z,45.87
2018-02-21T00:23:15.083Z,40.67
2018-02-21T00:25:42.915Z,50.07
2018-02-21T00:28:10.524Z,46.43
2018-02-21T00:30:38.222Z,43.08
2018-02-21T00:33:05.891Z,49.60
2018-02-21T00:35:33.583Z,41.88
2018-02-21T00:38:01.187Z,47.80
2018-02-21T00:40:28.814Z,44.50
2018-02-21T00:42:56.479Z,47.08
2018-02-21T00:45:24.174Z,52.03
2018-02-21T00:47:51.760Z,45.17
2018-02-21T00:50:19.522Z,46.20
2018-02-21T00:52:47.119Z,46.77
2018-02-21T00:55:14.737Z,47.63
2018-02-21T00:57:42.344Z,49.00
2018-02-21T01:00:10.051Z,43.25
2018-02-21T01:02:37.680Z,42.13
2018-02-21T01:05:05.343Z,42.90
2018-02-21T01:07:32.925Z,46.37
2018-02-21T01:10:00.642Z,47.62
2018-02-21T01:12:28.314Z,42.97
2018-02-21T01:14:56.006Z,51.13
2018-02-21T01:17:23.739Z,46.47
2018-02-21T01:19:51.570Z,48.87
2018-02-21T01:22:19.242Z,46.95
2018-02-21T01:24:47.107Z,47.60
2018-02-21T01:27:14.781Z,44.25
2018-02-21T01:29:42.510Z,51.15
2018-02-21T01:32:10.105Z,45.03
2018-02-21T01:34:37.726Z,49.67
2018-02-21T01:37:05.372Z,50.00
2018-02-21T01:39:33.082Z,45.78
2018-02-21T01:42:00.684Z,42.73
2018-02-21T01:44:28.390Z,48.27
2018-02-21T01:46:56.065Z,48.85
2018-02-21T01:49:23.857Z,43.95
2018-02-21T01:51:51.525Z,44.33
2018-02-21T01:54:19.281Z,48.67
2018-02-21T01:56:46.954Z,45.33
2018-02-21T01:59:14.673Z,53.08
2018-02-21T02:01:42.412Z,48.42
2018-02-21T02:04:10.113Z,46.22
2018-02-21T02:06:37.795Z,43.20
2018-02-21T02:09:05.512Z,49.90
2018-02-21T02:11:33.177Z,40.30
2018-02-21T02:14:00.902Z,52.95
2018-02-21T02:16:28.567Z,47.08
2018-02-21T02:18:56.291Z,47.50
2018-02-21T02:21:23.973Z,41.42
2018-02-21T02:23:51.667Z,46.00
2018-02-21T02:26:19.402Z,47.80
2018-02-21T02:28:47.102Z,43.03
2018-02-21T02:31:14.781Z,45.12
2018-02-21T02:33:42.487Z,45.42
2018-02-21T02:36:10.160Z,37.25
2018-02-21T02:52:04.786Z,38.35
2018-02-21T02:54:32.503Z,38.10
2018-02-21T02:57:00.189Z,41.30
2018-02-21T02:59:27.885Z,48.75
2018-02-21T03:01:55.558Z,41.50
2018-02-21T03:04:23.263Z,47.40
2018-02-21T03:06:51.057Z,42.53
2018-02-21T03:09:18.730Z,50.75
2018-02-21T03:11:46.430Z,46.28
2018-02-21T03:14:14.094Z,44.00
2018-02-21T03:16:41.928Z,42.47
2018-02-21T03:19:09.606Z,44.22
2018-02-21T03:21:37.294Z,40.72
2018-02-21T03:24:04.981Z,48.85
2018-02-21T03:26:32.822Z,42.67
2018-02-21T03:29:00.502Z,42.78
2018-02-21T03:31:28.215Z,40.38
2018-02-21T03:33:55.954Z,45.00
2018-02-21T03:36:23.627Z,49.00
2018-02-21T03:38:51.446Z,39.03
2018-02-21T03:41:19.123Z,38.60
2018-02-21T03:43:46.882Z,46.05
2018-02-21T03:46:14.624Z,43.67
2018-02-21T03:48:42.323Z,43.67
2018-02-21T03:51:10.006Z,42.30
2018-02-21T03:53:37.712Z,38.97
2018-02-21T03:56:05.382Z,44.47
2018-02-21T03:58:33.098Z,39.00
2018-02-21T04:01:00.771Z,41.75
2018-02-21T04:03:28.512Z,38.60
2018-02-21T04:05:56.186Z,41.90
2018-02-21T04:08:23.893Z,44.03
2018-02-21T04:10:51.494Z,40.43
2018-02-21T04:13:19.386Z,44.47
2018-02-21T04:15:47.070Z,38.00
2018-02-21T04:18:14.699Z,41.30
2018-02-21T04:20:42.370Z,42.33
2018-02-21T04:23:10.150Z,41.17
2018-02-21T04:25:37.878Z,43.97
2018-02-21T04:28:05.594Z,41.93
2018-02-21T04:30:33.281Z,41.90
2018-02-21T04:33:01.124Z,44.70
2018-02-21T04:35:28.798Z,46.05
2018-02-21T04:37:56.894Z,40.55
2018-02-21T04:40:24.567Z,42.92
2018-02-21T04:42:52.326Z,49.75
2018-02-21T04:45:19.989Z,47.30
2018-02-21T04:47:47.766Z,54.58
2018-02-21T04:50:15.452Z,42.88
2018-02-21T04:52:43.234Z,62.70
2018-02-21T05:08:33.802Z,59.85
2018-02-21T05:11:01.509Z,47.10
2018-02-21T05:13:29.209Z,48.25
2018-02-21T05:15:56.938Z,47.20
2018-02-21T05:18:24.635Z,50.75
2018-02-21T05:20:52.315Z,46.90
2018-02-21T05:23:20.010Z,48.45
2018-02-21T05:25:47.662Z,52.43
2018-02-21T05:28:15.342Z,55.15
2018-02-21T05:30:43.126Z,48.28
2018-02-21T05:33:10.799Z,54.47
2018-02-21T05:35:38.499Z,45.72
2018-02-21T05:38:06.239Z,43.85
2018-02-21T05:40:33.978Z,44.50
2018-02-21T05:43:01.694Z,68.97
2018-02-21T05:45:29.422Z,56.33
2018-02-21T05:47:57.740Z,53.28
2018-02-21T05:50:25.429Z,49.33
2018-02-21T05:52:53.126Z,46.13
2018-02-21T05:55:20.801Z,49.30
2018-02-21T05:57:48.499Z,44.58
2018-02-21T06:00:16.178Z,50.28
2018-02-21T06:02:43.849Z,44.90
2018-02-21T06:05:11.451Z,40.43
2018-02-21T06:07:39.082Z,44.87
2018-02-21T06:10:06.701Z,43.47
2018-02-21T06:12:34.286Z,42.80
2018-02-21T06:15:01.947Z,45.77
2018-02-21T06:17:29.550Z,47.77
2018-02-21T06:19:57.182Z,44.43
2018-02-21T06:22:25.008Z,48.93
2018-02-21T06:24:52.619Z,46.03
2018-02-21T06:27:20.214Z,44.10
2018-02-21T06:29:47.855Z,52.67
2018-02-21T06:32:15.549Z,47.60
2018-02-21T06:34:43.166Z,51.57
2018-02-21T06:37:10.787Z,52.10
2018-02-21T06:39:38.386Z,47.23
2018-02-21T06:42:06.013Z,44.37
2018-02-21T06:44:33.639Z,49.03
2018-02-21T06:47:01.232Z,51.63
2018-02-21T06:49:28.867Z,50.60
2018-02-21T06:51:56.454Z,54.70
2018-02-21T06:54:24.096Z,52.37
2018-02-21T06:56:51.687Z,51.20
2018-02-21T06:59:19.299Z,51.20
2018-02-21T07:01:46.974Z,43.83
2018-02-21T07:04:14.588Z,48.73
2018-02-21T07:06:42.143Z,45.60
2018-02-21T07:09:09.846Z,59.67
2018-02-21T07:11:37.518Z,54.20
2018-02-21T07:14:05.142Z,61.37
2018-02-21T07:16:32.853Z,52.07
2018-02-21T07:19:00.549Z,56.78
2018-02-21T07:21:28.296Z,58.28
2018-02-21T07:23:56.153Z,56.63
2018-02-21T07:26:23.838Z,56.15
2018-02-21T07:28:51.596Z,65.30
2018-02-21T07:31:19.219Z,58.83
2018-02-21T07:33:46.925Z,57.42
2018-02-21T07:36:14.611Z,65.07
2018-02-21T07:38:42.319Z,62.20
2018-02-21T07:41:10.020Z,70.53
2018-02-21T07:43:37.728Z,61.13
2018-02-21T07:46:05.427Z,56.22
2018-02-21T07:48:33.138Z,60.12
2018-02-21T07:51:00.850Z,63.85
2018-02-21T07:53:28.503Z,63.63
2018-02-21T07:55:56.210Z,62.08
2018-02-21T07:58:23.891Z,60.20
2018-02-21T08:00:51.583Z,67.78
2018-02-21T08:03:19.274Z,59.47
2018-02-21T08:05:47.017Z,68.32
2018-02-21T08:08:14.690Z,66.18
2018-02-21T08:10:42.445Z,68.82
2018-02-21T08:13:10.138Z,77.70
2018-02-21T08:15:37.850Z,73.82
2018-02-21T08:18:05.530Z,62.40
2018-02-21T08:20:33.405Z,70.57
2018-02-21T08:23:01.077Z,79.97
2018-02-21T08:25:28.794Z,61.85
2018-02-21T08:27:56.938Z,68.25
2018-02-21T08:30:24.694Z,72.25
2018-02-21T08:32:52.370Z,68.55
2018-02-21T08:35:20.074Z,68.37
2018-02-21T08:37:47.761Z,74.62
2018-02-21T08:40:15.514Z,68.03
2018-02-21T08:42:43.186Z,70.20
2018-02-21T08:45:11.063Z,66.15
2018-02-21T08:47:38.733Z,69.05
2018-02-21T08:50:06.449Z,66.70
2018-02-21T08:52:34.285Z,67.12
2018-02-21T08:55:02.027Z,75.87
2018-02-21T08:57:29.715Z,74.32
2018-02-21T08:59:57.546Z,70.78
2018-02-21T09:02:25.218Z,70.82
2018-02-21T09:04:52.942Z,75.95
2018-02-21T09:07:20.627Z,69.32
2018-02-21T09:09:48.413Z,70.72
2018-02-21T09:12:16.095Z,64.78
2018-02-21T09:14:43.794Z,73.25
2018-02-21T09:17:11.472Z,79.80
2018-02-21T09:19:39.179Z,70.32
2018-02-21T09:22:06.863Z,77.18
2018-02-21T09:24:34.558Z,68.72
2018-02-21T09:27:02.165Z,64.00
2018-02-21T09:29:29.866Z,79.10
2018-02-21T09:31:57.558Z,72.00
2018-02-21T09:34:25.183Z,68.33
2018-02-21T09:36:52.778Z,73.30
2018-02-21T09:39:20.501Z,67.12
2018-02-21T09:41:48.174Z,75.57
2018-02-21T09:44:15.826Z,77.10
2018-02-21T09:46:43.574Z,67.55
2018-02-21T09:49:11.447Z,67.85
2018-02-21T09:51:39.174Z,65.40
2018-02-21T09:54:06.823Z,73.60
2018-02-21T09:56:34.462Z,69.87
2018-02-21T09:59:02.074Z,69.40
2018-02-21T10:01:29.699Z,67.27
2018-02-21T10:03:57.482Z,67.77
2018-02-21T10:06:25.111Z,67.57
2018-02-21T10:08:52.710Z,67.93
2018-02-21T10:11:20.342Z,73.63
2018-02-21T10:13:47.950Z,67.00
2018-02-21T10:16:15.605Z,61.13
2018-02-21T10:18:43.205Z,64.00
2018-02-21T10:21:10.822Z,59.17
2018-02-21T10:23:38.451Z,54.80
2018-02-21T10:26:06.075Z,54.90
2018-02-21T10:28:33.682Z,51.57
2018-02-21T10:31:01.316Z,48.53
2018-02-21T10:33:28.924Z,49.67
2018-02-21T10:35:56.563Z,59.53
2018-02-21T10:38:24.176Z,56.20
2018-02-21T10:40:51.777Z,47.30
2018-02-21T10:43:19.510Z,51.27
2018-02-21T10:45:47.137Z,43.70
2018-02-21T10:48:14.746Z,47.80
2018-02-21T10:50:42.377Z,47.43
2018-02-21T10:53:10.050Z,45.97
2018-02-21T10:55:37.767Z,45.97
2018-02-21T10:58:05.402Z,44.40
2018-02-21T11:00:38.587Z,43.27
2018-02-21T11:03:06.202Z,45.30
2018-02-21T11:05:33.801Z,45.87
2018-02-21T11:08:05.210Z,40.00
2018-02-21T11:10:32.809Z,41.70
2018-02-21T11:13:00.437Z,46.17
2018-02-21T11:15:28.039Z,41.83
2018-02-21T11:17:55.998Z,46.87
2018-02-21T11:20:23.605Z,47.77
2018-02-21T11:22:51.244Z,41.07
2018-02-21T11:25:18.835Z,43.20
2018-02-21T11:27:46.454Z,38.17
2018-02-21T11:30:14.052Z,38.77
2018-02-21T11:32:41.690Z,40.13
2018-02-21T11:35:09.284Z,40.13
2018-02-21T11:37:36.988Z,39.30
2018-02-21T11:40:04.583Z,36.70
2018-02-21T11:42:32.250Z,40.27
2018-02-21T11:44:59.867Z,36.23
2018-02-21T11:47:27.493Z,32.50
2018-02-21T11:49:55.099Z,33.83
2018-02-21T11:52:22.690Z,35.90
2018-02-21T11:54:50.357Z,36.33
2018-02-21T11:57:17.983Z,38.00
2018-02-21T11:59:45.625Z,39.33
2018-02-21T12:02:13.230Z,37.90
2018-02-21T12:04:40.862Z,30.40
2018-02-21T12:07:08.471Z,40.47
2018-02-21T12:09:36.101Z,38.97
2018-02-21T12:12:03.809Z,44.43
2018-02-21T12:14:31.427Z,38.83
2018-02-21T12:16:59.130Z,33.40
2018-02-21T12:19:26.778Z,33.00
2018-02-21T12:21:54.431Z,40.90
2018-02-21T12:24:22.062Z,32.63
2018-02-21T12:26:49.679Z,32.50
2018-02-21T12:29:17.326Z,34.73
2018-02-21T12:31:44.970Z,31.87
2018-02-21T12:34:12.619Z,31.83
2018-02-21T12:36:40.235Z,32.10
2018-02-21T12:52:34.702Z,25.73
2018-02-21T12:55:02.356Z,26.60
2018-02-21T12:57:29.954Z,31.03
2018-02-21T12:59:57.611Z,25.93
2018-02-21T13:02:25.284Z,41.73
2018-02-21T13:04:52.934Z,46.37
2018-02-21T13:07:20.528Z,37.70
2018-02-21T13:09:48.162Z,38.70
2018-02-21T13:12:15.811Z,40.90
2018-02-21T13:14:43.497Z,38.70
2018-02-21T13:17:11.107Z,37.77
2018-02-21T13:19:38.729Z,37.90
2018-02-21T13:22:06.337Z,35.23
2018-02-21T13:24:33.974Z,39.57
2018-02-21T13:27:01.579Z,29.70
2018-02-21T13:29:29.222Z,33.03
2018-02-21T13:31:56.819Z,31.53
2018-02-21T13:34:24.470Z,28.77
2018-02-21T13:36:52.087Z,29.37
2018-02-21T13:39:19.698Z,32.10
2018-02-21T13:41:47.351Z,28.23
2018-02-21T13:44:14.977Z,38.27
2018-02-21T13:46:42.613Z,26.87
2018-02-21T13:49:10.299Z,25.27
2018-02-21T13:51:37.898Z,25.60
2018-02-21T13:54:05.687Z,23.77
2018-02-21T13:56:33.313Z,24.13
2018-02-21T13:59:00.970Z,24.20
2018-02-21T14:01:28.655Z,29.60
2018-02-21T14:03:56.298Z,29.53
2018-02-21T14:06:23.915Z,24.20
2018-02-21T14:08:51.555Z,30.47
2018-02-21T14:11:19.154Z,27.60
2018-02-21T14:13:46.787Z,23.53
2018-02-21T14:16:14.410Z,23.87
2018-02-21T14:18:42.043Z,21.80
2018-02-21T14:21:09.630Z,27.73
2018-02-21T14:23:37.386Z,20.87
2018-02-21T14:26:04.974Z,25.30
2018-02-21T14:28:32.611Z,22.70
2018-02-21T14:31:00.275Z,24.03
2018-02-21T14:33:28.020Z,21.60
2018-02-21T14:35:55.680Z,27.13
2018-02-21T14:38:23.346Z,24.90
2018-02-21T14:40:50.986Z,22.53
2018-02-21T14:43:18.623Z,24.90
2018-02-21T14:45:46.234Z,23.70
2018-02-21T14:48:13.878Z,22.57
2018-02-21T14:50:41.686Z,19.83
2018-02-21T14:53:09.378Z,17.93
2018-02-21T14:55:36.991Z,25.10
2018-02-21T14:58:04.647Z,21.47
2018-02-21T15:00:32.277Z,22.80
2018-02-21T15:02:59.930Z,21.27
2018-02-21T15:05:27.583Z,25.10
2018-02-21T15:07:55.190Z,20.47
2018-02-21T15:10:22.827Z,34.13
2018-02-21T15:12:50.439Z,20.00
2018-02-21T15:15:18.091Z,20.80
2018-02-21T15:17:45.694Z,25.37
2018-02-21T15:20:13.327Z,22.73
2018-02-21T15:22:40.939Z,22.20
2018-02-21T15:25:08.566Z,22.57
2018-02-21T15:27:36.162Z,19.10
2018-02-21T15:30:03.892Z,23.80
2018-02-21T15:32:31.494Z,21.77
2018-02-21T15:34:59.151Z,26.07
2018-02-21T15:37:26.738Z,26.17
2018-02-21T15:39:54.372Z,23.43
2018-02-21T15:42:21.990Z,25.50
2018-02-21T15:44:49.625Z,27.73
2018-02-21T15:47:17.233Z,24.83
2018-02-21T15:49:44.831Z,31.17
2018-02-21T15:52:12.467Z,28.93
2018-02-21T15:54:40.081Z,27.07
2018-02-21T15:57:07.756Z,31.60
2018-02-21T15:59:35.363Z,31.00
2018-02-21T16:02:03.024Z,28.40
2018-02-21T16:04:30.783Z,28.10
2018-02-21T16:06:58.387Z,28.80
2018-02-21T16:09:26.054Z,31.90
2018-02-21T16:11:53.659Z,27.80
2018-02-21T16:14:21.295Z,31.33
2018-02-21T16:16:48.910Z,29.20
2018-02-21T16:19:16.587Z,29.00
2018-02-21T16:21:44.219Z,26.13
2018-02-21T16:24:11.870Z,22.07
2018-02-21T16:26:39.460Z,23.03
2018-02-21T16:29:07.052Z,30.10
2018-02-21T16:31:34.778Z,32.40
2018-02-21T16:34:02.371Z,31.70
2018-02-21T16:36:29.998Z,27.40
2018-02-21T16:38:57.610Z,32.47
2018-02-21T16:41:25.365Z,24.67
2018-02-21T16:43:52.951Z,30.90
2018-02-21T16:46:20.596Z,32.47
2018-02-21T16:48:48.194Z,28.90
2018-02-21T16:51:15.834Z,31.07
2018-02-21T16:53:43.440Z,31.77
2018-02-21T16:56:11.166Z,28.53
2018-02-21T16:58:38.767Z,29.50
2018-02-21T17:01:06.464Z,27.50
2018-02-21T17:03:34.134Z,27.17
2018-02-21T17:06:01.771Z,30.00
2018-02-21T17:08:29.363Z,31.87
2018-02-21T17:10:56.999Z,29.03
2018-02-21T17:13:24.614Z,22.00
2018-02-21T17:15:52.239Z,23.90
2018-02-21T17:18:19.830Z,20.37
2018-02-21T17:20:47.599Z,24.27
2018-02-21T17:23:15.207Z,23.90
2018-02-21T17:25:42.854Z,18.47
2018-02-21T17:28:10.458Z,22.30
2018-02-21T17:30:38.107Z,26.40
2018-02-21T17:33:05.702Z,25.20
2018-02-21T17:35:33.336Z,25.37
2018-02-21T17:38:00.951Z,23.87
2018-02-21T17:40:28.576Z,23.33
2018-02-21T17:42:56.219Z,25.40
2018-02-21T17:45:23.846Z,20.50
2018-02-21T17:47:51.460Z,22.50
2018-02-21T17:50:19.092Z,22.80
2018-02-21T17:52:46.694Z,20.70
2018-02-21T17:55:14.347Z,23.80
2018-02-21T17:57:41.950Z,26.60
2018-02-21T18:00:09.630Z,54.50
2018-02-21T18:02:37.220Z,34.20
2018-02-21T18:05:04.863Z,30.00
2018-02-21T18:07:32.478Z,25.90
2018-02-21T18:10:00.124Z,24.57
2018-02-21T18:12:27.776Z,21.60
2018-02-21T18:14:55.404Z,24.77
2018-02-21T18:17:23.014Z,26.10
2018-02-21T18:19:50.721Z,28.73
2018-02-21T18:22:18.319Z,22.30
2018-02-21T18:24:45.981Z,24.13
2018-02-21T18:27:13.598Z,23.00
2018-02-21T18:29:41.250Z,25.40
2018-02-21T18:32:08.846Z,25.70
2018-02-21T18:34:36.466Z,24.97
2018-02-21T18:37:04.102Z,23.10
2018-02-21T18:39:31.738Z,23.67
2018-02-21T18:41:59.363Z,29.40
2018-02-21T18:44:26.987Z,44.47
2018-02-21T18:46:54.582Z,52.77
2018-02-21T18:49:22.237Z,32.00
2018-02-21T18:51:49.867Z,29.33
2018-02-21T18:54:17.519Z,27.30
2018-02-21T18:56:45.145Z,22.33
2018-02-21T18:59:12.774Z,24.30
2018-02-21T19:01:40.448Z,26.03
2018-02-21T19:04:08.076Z,26.23
2018-02-21T19:06:35.674Z,24.03
2018-02-21T19:09:03.388Z,23.27
2018-02-21T19:11:31.016Z,25.27
2018-02-21T19:13:58.637Z,23.27
2018-02-21T19:16:26.256Z,22.13
2018-02-21T19:18:53.877Z,23.83
2018-02-21T19:21:21.484Z,26.43
2018-02-21T19:23:49.385Z,29.30
2018-02-21T19:26:16.972Z,26.33
2018-02-21T19:28:44.626Z,25.13
2018-02-21T19:31:12.250Z,28.60
2018-02-21T19:33:39.838Z,25.30
2018-02-21T19:36:07.488Z,21.93
2018-02-21T19:38:35.106Z,21.23
2018-02-21T19:41:02.736Z,19.90
2018-02-21T19:43:30.351Z,23.97
2018-02-21T19:45:58.014Z,28.53
2018-02-21T19:48:25.609Z,26.27
2018-02-21T19:50:53.227Z,22.00
2018-02-21T19:53:20.869Z,22.63
2018-02-21T19:55:48.452Z,53.93
2018-02-21T19:58:16.051Z,38.43
2018-02-21T20:00:43.683Z,30.77
2018-02-21T20:03:11.311Z,22.33
2018-02-21T20:05:38.926Z,25.83
2018-02-21T20:08:06.551Z,26.00
2018-02-21T20:10:34.206Z,27.10
2018-02-21T20:13:01.844Z,23.13
2018-02-21T20:15:29.486Z,21.67
2018-02-21T20:17:57.698Z,19.70
2018-02-21T20:20:25.331Z,28.33
2018-02-21T20:22:52.960Z,42.97
2018-02-21T20:25:20.583Z,64.87
2018-02-21T20:27:48.238Z,27.40
2018-02-21T20:30:15.921Z,22.43
2018-02-21T20:32:43.530Z,22.47
2018-02-21T20:35:11.174Z,22.50
2018-02-21T20:37:38.835Z,25.40
2018-02-21T20:40:06.475Z,29.27
2018-02-21T20:42:34.070Z,22.67
2018-02-21T20:45:01.714Z,24.30
2018-02-21T20:47:29.301Z,22.07
2018-02-21T20:49:56.930Z,26.07
2018-02-21T20:52:24.525Z,19.87
2018-02-21T20:54:52.137Z,22.63
2018-02-21T20:57:19.735Z,27.17
2018-02-21T20:59:47.362Z,25.90
2018-02-21T21:02:14.959Z,22.50
2018-02-21T21:04:42.610Z,25.13
2018-02-21T21:07:10.207Z,23.60
2018-02-21T21:09:37.832Z,25.87
2018-02-21T21:12:05.439Z,28.70
2018-02-21T21:14:33.058Z,29.30
2018-02-21T21:17:00.741Z,29.93
2018-02-21T21:19:28.326Z,24.70
2018-02-21T21:21:55.914Z,29.27
2018-02-21T21:24:23.570Z,24.33
2018-02-21T21:26:51.167Z,27.47
2018-02-21T21:29:18.811Z,27.83
2018-02-21T21:31:46.417Z,26.80
2018-02-21T21:34:14.039Z,25.60
2018-02-21T21:36:41.748Z,24.30
2018-02-21T21:39:09.497Z,24.90
2018-02-21T21:41:37.066Z,26.30
2018-02-21T21:44:04.698Z,25.10
2018-02-21T21:46:32.290Z,26.57
2018-02-21T21:48:59.991Z,25.70
2018-02-21T21:51:27.593Z,32.40
2018-02-21T21:53:55.213Z,25.93
2018-02-21T21:56:22.822Z,25.60
2018-02-21T21:58:50.452Z,22.20
2018-02-21T22:01:18.052Z,25.53
2018-02-21T22:03:45.680Z,27.20
2018-02-21T22:06:13.364Z,25.20
2018-02-21T22:08:40.988Z,29.10
2018-02-21T22:11:08.579Z,24.37
2018-02-21T22:13:36.206Z,22.80
2018-02-21T22:16:03.823Z,28.00
2018-02-21T22:18:31.443Z,25.30
2018-02-21T22:20:59.059Z,23.40
2018-02-21T22:23:26.695Z,23.37
2018-02-21T22:25:54.444Z,30.60
2018-02-21T22:28:22.064Z,24.47
2018-02-21T22:30:49.671Z,26.50
2018-02-21T22:33:17.292Z,28.43
2018-02-21T22:35:44.884Z,26.17
2018-02-21T22:38:12.521Z,25.93
2018-02-21T22:40:40.119Z,28.53
2018-02-21T22:43:07.765Z,26.17
2018-02-21T22:45:35.370Z,25.37
2018-02-21T22:48:02.979Z,26.10
2018-02-21T22:50:30.571Z,28.40
2018-02-21T22:52:58.275Z,26.10
2018-02-21T22:55:25.866Z,33.10
2018-02-21T22:57:53.501Z,26.63
2018-02-21T23:00:21.097Z,24.20
2018-02-21T23:02:48.711Z,28.67
2018-02-21T23:05:16.312Z,27.30
2018-02-21T23:07:43.941Z,27.00
2018-02-21T23:10:11.550Z,27.40
2018-02-21T23:12:39.162Z,26.03
2018-02-21T23:15:06.766Z,30.37
2018-02-21T23:17:34.398Z,26.57
2018-02-21T23:20:01.990Z,35.20
2018-02-21T23:22:29.674Z,25.43
2018-02-21T23:24:57.269Z,28.37
2018-02-21T23:27:24.902Z,25.17
2018-02-21T23:29:52.536Z,30.23
2018-02-21T23:32:20.154Z,27.63
2018-02-21T23:34:47.755Z,29.43
2018-02-21T23:37:15.378Z,31.63
2018-02-21T23:39:42.977Z,33.20
2018-02-21T23:42:10.607Z,26.80
2018-02-21T23:44:38.210Z,25.33
2018-02-21T23:47:05.811Z,31.50
2018-02-21T23:49:33.530Z,28.20
2018-02-21T23:52:01.130Z,31.80
2018-02-21T23:54:28.831Z,33.80
2018-02-21T23:56:56.458Z,27.40
2018-02-21T23:59:24.066Z,33.40
